Havana, Illinois
Current Conditions -  °F | °C
As of 11:54 PM on Saturday 20 Dec 2014 (Local Time) from KPIA Reporting Station
Overcast Overcast  
Wind Chill: 29°   Ceiling: 3300
Heat Index: 36°   Visibility: 8mi
Dew Point: 29°   Wind: 9mph
Humidity: 76%   Direction: 180°S
Pressure: 30.23"   Gusts: NA
Location:  40.3°N, 90.06°W
Report Text: KPIA 210554Z 18008KT 8SM FEW025 OVC033 02/M02 A3023 RMK AO2 SLP243 T00221017 10022 20017 400281039 55004
Loading
Personal Weather Stations






























Interactive Weather Map New forecast layout! Learn more

10-Day Weather Forecast

Advertisements
Track Severe Weather on mobile